Terminal Aerodrome Forecast
Issued by NWS Wichita, KS

Home | Current Version | Previous Version | Text Only | Print | Product List | Glossary On
Versions: 1 2 3 4 5 6 7 8 9 10 11 12 13 14 15 16 17 18 19 20 21 22 23 24 25
000
FTUS43 KICT 270750 AAB
TAFICT
TAF AMD
KICT 270750Z 2708/2806 35013KT P6SM VCSH OVC005
     FM271400 34011KT P6SM BKN009
     FM271600 34009KT P6SM BKN015
     FM272000 36008KT P6SM SCT025=

USA.gov is the U.S. government's official web portal to all federal, state and local government web resources and services.